createdAt,value
2022-08-29T00:01:30.490Z,65.88
2022-08-29T00:03:59.269Z,64.79
2022-08-29T00:06:26.367Z,63.75
2022-08-29T00:08:53.142Z,64.65
2022-08-29T00:11:22.953Z,64.98
2022-08-29T00:13:51.302Z,66.46
2022-08-29T00:16:19.016Z,66.90
2022-08-29T00:18:47.040Z,66.22
2022-08-29T00:21:14.903Z,66.85
2022-08-29T00:23:43.936Z,67.08
2022-08-29T00:27:02.011Z,66.69
2022-08-29T00:29:30.077Z,66.69
2022-08-29T00:31:56.982Z,66.81
2022-08-29T00:34:23.761Z,67.72
2022-08-29T00:36:51.984Z,66.81
2022-08-29T00:39:18.987Z,67.19
2022-08-29T00:41:50.771Z,67.13
2022-08-29T00:44:17.495Z,68.02
2022-08-29T00:46:51.690Z,67.51
2022-08-29T00:49:37.479Z,67.56
2022-08-29T00:52:44.605Z,66.73
2022-08-29T00:55:15.169Z,67.24
2022-08-29T00:57:46.738Z,67.48
2022-08-29T01:00:16.196Z,67.42
2022-08-29T01:02:43.237Z,67.75
2022-08-29T01:05:13.210Z,68.58
2022-08-29T01:07:41.487Z,68.78
2022-08-29T01:10:13.319Z,69.07
2022-08-29T01:12:42.116Z,69.11
2022-08-29T01:15:13.006Z,69.01
2022-08-29T01:17:47.293Z,69.09
2022-08-29T01:20:23.764Z,69.11
2022-08-29T01:23:09.108Z,68.93
2022-08-29T01:25:41.113Z,68.79
2022-08-29T01:28:23.473Z,68.86
2022-08-29T01:31:06.352Z,68.63
2022-08-29T01:34:02.564Z,68.88
2022-08-29T01:36:47.651Z,68.98
2022-08-29T01:39:14.355Z,69.29
2022-08-29T01:41:43.283Z,69.28
2022-08-29T01:44:13.121Z,70.32
2022-08-29T01:46:40.694Z,70.14
2022-08-29T01:49:09.875Z,70.47
2022-08-29T01:51:41.562Z,69.68
2022-08-29T01:54:10.519Z,69.33
2022-08-29T01:56:40.441Z,70.18
2022-08-29T01:59:15.401Z,70.37
2022-08-29T02:01:46.669Z,70.22
2022-08-29T02:04:13.335Z,69.75
2022-08-29T02:06:40.339Z,70.03
2022-08-29T02:09:11.335Z,69.94
2022-08-29T02:11:40.006Z,69.91
2022-08-29T02:14:08.035Z,70.86
2022-08-29T02:16:44.468Z,71.01
2022-08-29T02:19:12.583Z,70.36
2022-08-29T02:21:39.516Z,70.50
2022-08-29T02:24:23.917Z,71.19
2022-08-29T02:26:54.003Z,71.27
2022-08-29T02:29:20.685Z,71.50
2022-08-29T02:31:48.774Z,71.54
2022-08-29T02:34:16.626Z,70.66
2022-08-29T02:36:44.023Z,70.36
2022-08-29T02:39:11.715Z,70.83
2022-08-29T02:41:41.201Z,70.04
2022-08-29T02:44:11.933Z,69.89
2022-08-29T02:46:38.816Z,69.79
2022-08-29T02:49:05.567Z,69.99
2022-08-29T02:51:33.881Z,69.69
2022-08-29T02:54:01.414Z,69.32
2022-08-29T02:56:30.151Z,69.30
2022-08-29T02:59:00.474Z,68.58
2022-08-29T03:01:33.458Z,69.34
2022-08-29T03:04:04.842Z,70.43
2022-08-29T03:06:31.657Z,70.39
2022-08-29T03:08:58.399Z,70.69
2022-08-29T03:11:25.247Z,70.64
2022-08-29T03:13:51.943Z,71.01
2022-08-29T03:16:24.392Z,71.38
2022-08-29T03:18:51.098Z,73.13
2022-08-29T03:21:26.385Z,73.42
2022-08-29T03:23:56.277Z,74.57
2022-08-29T03:26:27.992Z,74.10
2022-08-29T03:28:55.760Z,74.61
2022-08-29T03:31:22.689Z,75.20
2022-08-29T03:33:49.639Z,75.19
2022-08-29T03:36:16.789Z,75.02
2022-08-29T03:38:48.404Z,74.91
2022-08-29T03:41:27.211Z,75.29
2022-08-29T03:43:55.518Z,76.52
2022-08-29T03:46:23.063Z,76.87
2022-08-29T03:48:50.180Z,76.58
2022-08-29T03:51:17.848Z,77.30
2022-08-29T03:53:45.096Z,76.64
2022-08-29T03:56:18.117Z,77.12
2022-08-29T03:58:52.859Z,76.68
2022-08-29T04:01:25.074Z,76.38
2022-08-29T04:03:54.382Z,76.01
2022-08-29T04:06:23.360Z,76.53
2022-08-29T04:08:54.155Z,76.95
2022-08-29T04:11:24.304Z,77.58
2022-08-29T04:13:53.208Z,77.09
2022-08-29T04:16:23.453Z,78.16
2022-08-29T04:18:50.368Z,78.98
2022-08-29T04:21:19.427Z,79.67
2022-08-29T04:23:48.062Z,78.66
2022-08-29T04:26:37.886Z,78.30
2022-08-29T04:29:07.140Z,76.70
2022-08-29T04:31:36.954Z,77.52
2022-08-29T04:34:07.243Z,77.72
2022-08-29T04:36:40.507Z,78.40
2022-08-29T04:39:10.017Z,79.13
2022-08-29T04:41:38.819Z,79.50
2022-08-29T04:44:10.658Z,79.31
2022-08-29T04:46:38.605Z,79.94
2022-08-29T04:49:09.974Z,80.53
2022-08-29T04:51:36.901Z,80.84
2022-08-29T04:54:05.019Z,81.94
2022-08-29T04:56:31.819Z,81.04
2022-08-29T04:58:59.706Z,80.74
2022-08-29T05:01:27.718Z,79.34
2022-08-29T05:03:55.761Z,79.52
2022-08-29T05:06:27.414Z,79.67
2022-08-29T05:08:59.939Z,79.45
2022-08-29T05:11:29.095Z,79.83
2022-08-29T05:13:55.810Z,79.40
2022-08-29T05:16:22.813Z,79.52
2022-08-29T05:18:49.623Z,79.19
2022-08-29T05:21:25.827Z,78.71
2022-08-29T05:23:55.306Z,77.32
2022-08-29T05:26:22.103Z,71.97
2022-08-29T05:28:49.773Z,73.30
2022-08-29T05:31:16.636Z,73.88
2022-08-29T05:33:44.758Z,74.67
2022-08-29T05:36:11.448Z,73.89
2022-08-29T05:38:39.767Z,72.71
2022-08-29T05:41:08.080Z,67.08
2022-08-29T05:43:35.447Z,71.33
2022-08-29T05:46:08.358Z,67.30
2022-08-29T05:48:36.168Z,68.32
2022-08-29T05:51:05.335Z,66.60
2022-08-29T05:53:32.029Z,64.92
2022-08-29T05:56:00.777Z,67.47
2022-08-29T05:58:28.444Z,69.71
2022-08-29T06:00:55.102Z,68.92
2022-08-29T06:03:23.270Z,70.47
2022-08-29T06:05:52.404Z,71.37
2022-08-29T06:08:21.813Z,71.22
2022-08-29T06:10:49.856Z,72.45
2022-08-29T06:13:16.577Z,69.59
2022-08-29T06:15:45.736Z,61.98
2022-08-29T06:18:13.373Z,57.96
2022-08-29T06:20:40.976Z,61.71
2022-08-29T06:23:08.609Z,63.33
2022-08-29T06:25:39.290Z,57.86
2022-08-29T06:28:08.191Z,54.46
2022-08-29T06:30:34.908Z,56.78
2022-08-29T06:33:05.541Z,53.10
2022-08-29T06:35:32.174Z,57.73
2022-08-29T06:37:58.838Z,55.84
2022-08-29T06:40:25.581Z,58.30
2022-08-29T06:42:52.324Z,57.88
2022-08-29T06:45:19.076Z,58.99
2022-08-29T06:47:49.781Z,55.10
2022-08-29T06:50:18.262Z,57.41
2022-08-29T06:52:47.091Z,56.88
2022-08-29T06:55:21.693Z,55.32
2022-08-29T06:57:51.018Z,61.17
2022-08-29T07:00:21.444Z,63.90
2022-08-29T07:02:51.723Z,64.34
2022-08-29T07:05:20.654Z,64.18
2022-08-29T07:07:50.522Z,56.09
2022-08-29T07:10:22.276Z,58.29
2022-08-29T07:12:49.792Z,61.54
2022-08-29T07:15:16.510Z,60.67
2022-08-29T07:17:43.267Z,55.82
2022-08-29T07:20:11.068Z,57.33
2022-08-29T07:22:37.816Z,58.74
2022-08-29T07:25:04.994Z,55.31
2022-08-29T07:27:31.928Z,58.27
2022-08-29T07:30:00.551Z,55.50
2022-08-29T07:32:27.229Z,55.07
2022-08-29T07:34:56.136Z,53.83
2022-08-29T07:37:23.684Z,61.43
2022-08-29T07:39:51.812Z,59.92
2022-08-29T07:42:19.426Z,60.78
2022-08-29T07:44:46.082Z,59.15
2022-08-29T07:47:12.829Z,55.31
2022-08-29T07:49:42.379Z,53.20
2022-08-29T07:52:09.276Z,58.29
2022-08-29T07:54:36.093Z,56.51
2022-08-29T07:57:02.864Z,57.29
2022-08-29T07:59:33.697Z,55.04
2022-08-29T08:02:00.501Z,51.59
2022-08-29T08:04:27.189Z,51.23
2022-08-29T08:06:58.704Z,51.07
2022-08-29T08:09:25.574Z,54.37
2022-08-29T08:11:53.703Z,51.43
2022-08-29T08:14:20.384Z,53.87
2022-08-29T08:16:48.488Z,51.29
2022-08-29T08:19:16.449Z,51.09
2022-08-29T08:21:49.773Z,57.08
2022-08-29T08:24:20.030Z,55.43
2022-08-29T08:26:48.761Z,52.75
2022-08-29T08:29:16.131Z,52.33
2022-08-29T08:31:49.613Z,54.11
2022-08-29T08:34:17.983Z,50.63
2022-08-29T08:36:46.189Z,51.19
2022-08-29T08:39:16.035Z,55.04
2022-08-29T08:42:24.897Z,53.97
2022-08-29T08:45:03.171Z,49.18
2022-08-29T08:48:19.762Z,48.14
2022-08-29T08:50:59.774Z,53.32
2022-08-29T08:53:37.826Z,48.56
2022-08-29T08:56:22.502Z,49.91
2022-08-29T08:58:53.282Z,45.23
2022-08-29T09:01:30.209Z,46.40
2022-08-29T09:04:04.218Z,46.17
2022-08-29T09:06:34.084Z,46.11
2022-08-29T09:09:14.840Z,48.92
2022-08-29T09:12:05.844Z,45.53
2022-08-29T09:14:55.811Z,44.71
2022-08-29T09:17:52.881Z,46.68
2022-08-29T09:20:23.845Z,43.25
2022-08-29T09:23:01.089Z,41.55
2022-08-29T09:25:29.562Z,42.80
2022-08-29T09:28:00.007Z,44.87
2022-08-29T09:30:33.742Z,41.75
2022-08-29T09:33:11.022Z,43.55
2022-08-29T09:35:40.949Z,41.03
2022-08-29T09:38:28.856Z,42.27
2022-08-29T09:41:15.350Z,40.63
2022-08-29T09:43:41.972Z,40.72
2022-08-29T09:46:19.021Z,39.62
2022-08-29T09:49:24.538Z,40.80
2022-08-29T09:51:51.729Z,37.48
2022-08-29T09:54:33.034Z,38.87
2022-08-29T09:57:20.871Z,36.35
2022-08-29T10:00:12.452Z,38.99
2022-08-29T10:02:45.113Z,36.55
2022-08-29T10:05:45.689Z,37.80
2022-08-29T10:08:26.586Z,39.59
2022-08-29T10:10:59.586Z,39.39
2022-08-29T10:13:40.839Z,39.18
2022-08-29T10:16:17.744Z,37.80
2022-08-29T10:18:58.925Z,41.26
2022-08-29T10:22:03.037Z,42.51
2022-08-29T10:24:53.225Z,41.92
2022-08-29T10:27:43.412Z,41.87
2022-08-29T10:30:27.420Z,38.80
2022-08-29T10:33:21.977Z,40.90
2022-08-29T10:36:06.897Z,40.51
2022-08-29T10:38:43.650Z,42.13
2022-08-29T10:41:39.403Z,41.75
2022-08-29T10:44:44.480Z,37.24
2022-08-29T10:47:19.149Z,36.78
2022-08-29T10:50:27.620Z,35.46
2022-08-29T10:53:14.785Z,34.57
2022-08-29T10:56:07.925Z,34.52
2022-08-29T10:58:42.911Z,34.19
2022-08-29T11:01:23.557Z,36.22
2022-08-29T11:04:19.813Z,35.14
2022-08-29T11:07:00.534Z,31.71
2022-08-29T11:09:39.029Z,32.47
2022-08-29T11:12:17.730Z,29.47
2022-08-29T11:15:05.341Z,28.64
2022-08-29T11:17:42.576Z,28.92
2022-08-29T11:20:20.595Z,30.51
2022-08-29T11:22:53.310Z,30.43
2022-08-29T11:25:23.114Z,30.91
2022-08-29T11:28:10.206Z,30.54
2022-08-29T11:30:55.824Z,27.45
2022-08-29T11:33:28.632Z,29.21
2022-08-29T11:36:07.681Z,30.32
2022-08-29T11:38:47.857Z,29.29
2022-08-29T11:41:49.313Z,30.11
2022-08-29T11:44:55.313Z,28.07
2022-08-29T11:47:40.404Z,27.42
2022-08-29T11:50:17.166Z,28.13
2022-08-29T11:53:11.784Z,28.49
2022-08-29T11:56:06.702Z,24.07
2022-08-29T11:58:33.460Z,25.51
2022-08-29T12:01:00.213Z,25.29
2022-08-29T12:03:33.241Z,24.57
2022-08-29T12:06:43.476Z,23.67
2022-08-29T12:09:14.078Z,24.71
2022-08-29T12:12:02.571Z,24.10
2022-08-29T12:14:36.934Z,24.52
2022-08-29T12:17:10.323Z,24.90
2022-08-29T12:20:18.002Z,23.39
2022-08-29T12:23:11.460Z,23.68
2022-08-29T12:25:44.993Z,23.17
2022-08-29T12:28:33.146Z,22.86
2022-08-29T12:31:01.273Z,23.21
2022-08-29T12:33:55.916Z,21.87
2022-08-29T12:36:26.516Z,22.59
2022-08-29T12:39:27.147Z,24.69
2022-08-29T12:42:05.909Z,24.64
2022-08-29T12:44:38.130Z,26.65
2022-08-29T12:47:11.617Z,25.39
2022-08-29T12:49:51.563Z,25.25
2022-08-29T12:52:32.200Z,26.95
2022-08-29T12:55:17.849Z,27.06
2022-08-29T12:57:54.448Z,26.74
2022-08-29T13:00:30.333Z,26.98
2022-08-29T13:03:17.427Z,27.58
2022-08-29T13:05:44.876Z,27.00
2022-08-29T13:08:15.972Z,27.51
2022-08-29T13:10:59.305Z,27.77
2022-08-29T13:13:28.476Z,28.53
2022-08-29T13:16:00.939Z,30.18
2022-08-29T13:18:29.155Z,30.60
2022-08-29T13:21:19.493Z,31.48
2022-08-29T13:24:14.641Z,31.57
2022-08-29T13:27:05.001Z,30.77
2022-08-29T13:29:39.881Z,32.09
2022-08-29T13:32:23.978Z,32.29
2022-08-29T13:35:15.844Z,32.86
2022-08-29T13:37:46.333Z,31.31
2022-08-29T13:40:30.391Z,30.41
2022-08-29T13:42:59.065Z,31.46
2022-08-29T13:45:26.537Z,33.02
2022-08-29T13:47:58.558Z,33.23
2022-08-29T13:50:26.870Z,31.56
2022-08-29T13:52:56.169Z,32.00
2022-08-29T13:55:25.493Z,32.60
2022-08-29T13:57:54.827Z,32.75
2022-08-29T14:00:34.851Z,32.38
2022-08-29T14:03:03.498Z,32.29
2022-08-29T14:05:30.415Z,31.01
2022-08-29T14:07:57.628Z,31.72
2022-08-29T14:10:24.415Z,32.45
2022-08-29T14:12:51.155Z,32.32
2022-08-29T14:15:18.519Z,33.74
2022-08-29T14:17:47.752Z,31.62
2022-08-29T14:20:19.443Z,32.33
2022-08-29T14:22:47.049Z,31.95
2022-08-29T14:25:18.606Z,30.85
2022-08-29T14:27:47.522Z,31.68
2022-08-29T14:30:17.212Z,33.73
2022-08-29T14:32:43.985Z,33.47
2022-08-29T14:35:11.331Z,33.54
2022-08-29T14:37:53.318Z,32.45
2022-08-29T14:40:21.857Z,32.41
2022-08-29T14:42:52.362Z,31.33
2022-08-29T14:45:19.125Z,31.76
2022-08-29T14:47:49.980Z,32.61
2022-08-29T14:50:17.155Z,33.22
2022-08-29T14:52:44.468Z,32.18
2022-08-29T14:55:13.351Z,33.17
2022-08-29T14:57:41.026Z,34.12
2022-08-29T15:00:16.291Z,33.92
2022-08-29T15:05:29.615Z,34.49
2022-08-29T15:07:56.488Z,34.73
2022-08-29T15:10:24.869Z,34.21
2022-08-29T15:12:52.308Z,32.81
2022-08-29T15:15:20.889Z,33.90
2022-08-29T15:17:50.684Z,34.58
2022-08-29T15:20:35.625Z,35.01
2022-08-29T15:23:05.012Z,36.58
2022-08-29T15:25:31.818Z,36.44
2022-08-29T15:28:01.141Z,36.23
2022-08-29T15:30:28.225Z,36.48
2022-08-29T15:32:55.732Z,37.15
2022-08-29T15:35:26.055Z,37.39
2022-08-29T15:37:55.925Z,36.02
2022-08-29T15:40:22.972Z,34.54
2022-08-29T15:42:52.374Z,33.14
2022-08-29T15:45:19.329Z,33.43
2022-08-29T15:47:59.613Z,33.99
2022-08-29T15:50:28.462Z,34.08
2022-08-29T15:52:55.426Z,34.25
2022-08-29T15:55:23.727Z,35.28
2022-08-29T15:57:52.811Z,41.17
2022-08-29T16:00:30.704Z,43.73
2022-08-29T16:03:03.710Z,49.90
2022-08-29T16:05:31.688Z,53.66
2022-08-29T16:07:58.541Z,55.14
2022-08-29T16:10:25.769Z,59.76
2022-08-29T16:12:52.457Z,60.90
2022-08-29T16:15:19.170Z,63.72
2022-08-29T16:17:45.848Z,64.92
2022-08-29T16:20:12.986Z,65.25
2022-08-29T16:22:41.922Z,63.74
2022-08-29T16:25:12.011Z,62.16
2022-08-29T16:27:38.785Z,61.09
2022-08-29T16:30:06.595Z,60.43
2022-08-29T16:32:33.416Z,57.46
2022-08-29T16:35:00.211Z,51.18
2022-08-29T16:37:29.790Z,53.25
2022-08-29T16:39:56.577Z,50.49
2022-08-29T16:42:25.605Z,50.26
2022-08-29T16:44:55.618Z,47.60
2022-08-29T16:47:24.481Z,47.20
2022-08-29T16:49:53.726Z,47.68
2022-08-29T16:52:20.398Z,48.29
2022-08-29T16:54:47.076Z,48.38
2022-08-29T16:57:13.691Z,47.17
2022-08-29T16:59:43.134Z,46.28
2022-08-29T17:02:09.934Z,47.36
2022-08-29T17:04:38.180Z,47.66
2022-08-29T17:07:05.374Z,47.11
2022-08-29T17:09:32.038Z,46.66
2022-08-29T17:11:59.255Z,45.74
2022-08-29T17:14:30.167Z,46.72
2022-08-29T17:17:00.759Z,46.06
2022-08-29T17:19:33.262Z,44.56
2022-08-29T17:22:01.019Z,42.92
2022-08-29T17:24:28.178Z,44.02
2022-08-29T17:26:54.867Z,43.47
2022-08-29T17:29:23.141Z,42.63
2022-08-29T17:31:50.219Z,42.91
2022-08-29T17:34:17.961Z,42.13
2022-08-29T17:36:46.280Z,42.61
2022-08-29T17:39:13.065Z,42.92
2022-08-29T17:41:39.872Z,41.65
2022-08-29T17:44:12.347Z,42.40
2022-08-29T17:46:39.073Z,43.19
2022-08-29T17:49:10.332Z,45.08
2022-08-29T17:51:38.454Z,42.28
2022-08-29T17:54:14.909Z,43.16
2022-08-29T17:56:48.822Z,41.39
2022-08-29T17:59:18.334Z,41.15
2022-08-29T18:01:46.921Z,40.46
2022-08-29T18:04:13.817Z,40.15
2022-08-29T18:06:43.633Z,39.75
2022-08-29T18:09:10.817Z,39.55
2022-08-29T18:11:45.625Z,39.40
2022-08-29T18:14:12.852Z,39.08
2022-08-29T18:16:39.994Z,39.99
2022-08-29T18:19:11.898Z,39.29
2022-08-29T18:21:41.093Z,39.86
2022-08-29T18:24:23.300Z,40.07
2022-08-29T18:26:51.033Z,39.91
2022-08-29T18:29:19.270Z,39.56
2022-08-29T18:31:45.928Z,38.73
2022-08-29T18:34:15.360Z,38.22
2022-08-29T18:36:43.983Z,39.21
2022-08-29T18:39:11.950Z,38.10
2022-08-29T18:41:39.014Z,38.19
2022-08-29T18:44:05.838Z,39.15
2022-08-29T18:46:33.330Z,39.49
2022-08-29T18:49:00.358Z,39.33
2022-08-29T18:51:27.669Z,38.66
2022-08-29T18:53:54.858Z,39.45
2022-08-29T18:56:29.126Z,39.85
2022-08-29T18:58:59.021Z,39.78
2022-08-29T19:01:28.484Z,39.70
2022-08-29T19:04:00.220Z,39.40
2022-08-29T19:06:27.698Z,39.20
2022-08-29T19:08:57.091Z,39.08
2022-08-29T19:11:29.247Z,39.69
2022-08-29T19:13:56.106Z,38.99
2022-08-29T19:16:23.935Z,39.39
2022-08-29T19:18:53.544Z,39.28
2022-08-29T19:21:23.295Z,38.92
2022-08-29T19:23:56.098Z,38.39
2022-08-29T19:26:52.815Z,38.20
2022-08-29T19:29:32.240Z,38.89
2022-08-29T19:31:59.673Z,38.55
2022-08-29T19:34:26.542Z,38.55
2022-08-29T19:36:53.194Z,38.62
2022-08-29T19:39:20.075Z,38.90
2022-08-29T19:41:46.867Z,38.47
2022-08-29T19:44:14.528Z,38.89
2022-08-29T19:46:45.017Z,39.17
2022-08-29T19:49:20.711Z,39.39
2022-08-29T19:51:47.407Z,38.87
2022-08-29T19:54:18.730Z,39.55
2022-08-29T19:56:48.529Z,40.12
2022-08-29T19:59:16.457Z,39.58
2022-08-29T20:01:45.816Z,40.42
2022-08-29T20:04:13.090Z,40.95
2022-08-29T20:06:40.053Z,41.47
2022-08-29T20:11:46.145Z,40.53
2022-08-29T20:14:14.276Z,40.78
2022-08-29T20:16:44.479Z,41.04
2022-08-29T20:19:12.031Z,40.76
2022-08-29T20:21:38.932Z,40.93
2022-08-29T20:24:05.919Z,41.20
2022-08-29T20:26:35.223Z,41.54
2022-08-29T20:29:06.613Z,41.27
2022-08-29T20:31:33.593Z,41.53
2022-08-29T20:34:01.759Z,41.38
2022-08-29T20:36:46.993Z,41.64
2022-08-29T20:39:16.588Z,41.28
2022-08-29T20:41:51.648Z,41.73
2022-08-29T20:44:20.428Z,41.83
2022-08-29T20:46:48.261Z,42.66
2022-08-29T20:49:19.936Z,42.77
2022-08-29T20:51:46.850Z,42.52
2022-08-29T20:54:16.712Z,42.65
2022-08-29T20:56:44.500Z,42.77
2022-08-29T20:59:11.725Z,42.78
2022-08-29T21:01:40.422Z,43.50
2022-08-29T21:04:26.873Z,43.61
2022-08-29T21:06:56.799Z,43.28
2022-08-29T21:09:23.726Z,43.66
2022-08-29T21:11:52.549Z,43.44
2022-08-29T21:14:22.967Z,43.55
2022-08-29T21:16:54.213Z,44.38
2022-08-29T21:19:22.089Z,44.57
2022-08-29T21:21:54.230Z,44.76
2022-08-29T21:24:21.082Z,44.75
2022-08-29T21:26:48.263Z,45.12
2022-08-29T21:29:15.200Z,45.13
2022-08-29T21:31:42.141Z,45.15
2022-08-29T21:34:33.037Z,45.33
2022-08-29T21:36:59.745Z,45.55
2022-08-29T21:39:28.403Z,46.20
2022-08-29T21:41:57.663Z,46.52
2022-08-29T21:44:25.823Z,46.15
2022-08-29T21:46:58.248Z,46.47
2022-08-29T21:49:26.338Z,45.88
2022-08-29T21:51:53.870Z,45.66
2022-08-29T21:54:23.645Z,45.75
2022-08-29T21:56:50.747Z,45.93
2022-08-29T21:59:21.272Z,46.21
2022-08-29T22:01:49.007Z,46.63
2022-08-29T22:04:28.538Z,46.91
2022-08-29T22:06:57.567Z,47.42
2022-08-29T22:09:26.911Z,46.75
2022-08-29T22:11:55.516Z,46.83
2022-08-29T22:14:42.120Z,47.65
2022-08-29T22:17:08.943Z,47.46
2022-08-29T22:19:39.840Z,48.12
2022-08-29T22:22:09.661Z,48.65
2022-08-29T22:24:37.552Z,48.00
2022-08-29T22:27:04.290Z,47.74
2022-08-29T22:29:30.995Z,47.92
2022-08-29T22:31:57.730Z,47.58
2022-08-29T22:34:26.826Z,47.48
2022-08-29T22:36:56.020Z,48.43
2022-08-29T22:39:22.719Z,48.08
2022-08-29T22:41:50.660Z,48.88
2022-08-29T22:47:05.840Z,49.17
2022-08-29T22:49:33.408Z,49.97
2022-08-29T22:52:01.224Z,49.47
2022-08-29T22:54:34.996Z,50.74
2022-08-29T22:57:15.540Z,50.85
2022-08-29T22:59:43.509Z,51.69
2022-08-29T23:02:11.535Z,52.28
2022-08-29T23:04:39.304Z,51.02
2022-08-29T23:07:08.457Z,51.32
2022-08-29T23:09:39.525Z,51.79
2022-08-29T23:12:07.722Z,51.31
2022-08-29T23:14:37.516Z,52.00
2022-08-29T23:17:06.956Z,51.83
2022-08-29T23:19:33.956Z,51.53
2022-08-29T23:22:02.325Z,52.05
2022-08-29T23:24:29.972Z,51.09
2022-08-29T23:26:59.585Z,52.40
2022-08-29T23:29:27.271Z,51.17
2022-08-29T23:31:56.120Z,51.43
2022-08-29T23:34:23.634Z,52.00
2022-08-29T23:36:50.413Z,51.87
2022-08-29T23:39:17.167Z,52.35
2022-08-29T23:41:43.906Z,52.09
2022-08-29T23:44:10.666Z,51.70
2022-08-29T23:46:38.693Z,51.44
2022-08-29T23:49:08.807Z,52.27
2022-08-29T23:51:36.067Z,52.55
2022-08-29T23:54:02.743Z,52.35
2022-08-29T23:56:29.381Z,52.08
2022-08-29T23:58:59.385Z,52.94
